Eurocargo Salerno — 9HA3534 — position and weather

sailwx.info

Track history (hours):
 
Tides and Currents Weather Stations Pressure Air Temp Water Temp Dewpoint Dewpoint Depression Visibility Wind Speed Wind Dir Waves Ship Positions

Eurocargo Salerno

Last reported at 2018-Feb-20 02:33 UTC. Time now 2018-Feb-20 05:37 UTC.
Position N 38°59' E 009°34'.

Length 195 m; draft 6.3 m.

Type: Cargo ship. MMSI: 229706000.

Date/timePositionNaut miles runAvg speedWind from/ knotsBaromVisibWave heightAir tempDewpointWater temp
2018-Feb-20 02:33N 38°59' E 009°34'315.7
2018-Feb-20 02:22N 38°59' E 009°30'616.7
2018-Feb-20 02:00N 39°02' E 009°23'816.6
2018-Feb-20 01:30N 39°07' E 009°15'815.3
2018-Feb-20 01:00N 39°11' E 009°07'2 2.9
2018-Feb-20 00:28N 39°13' E 009°06'0 0.0
2018-Feb-19 23:58N 39°13' E 009°06'0 0.0
2018-Feb-19 23:28N 39°13' E 009°06'0 0.0
2018-Feb-19 22:58N 39°13' E 009°06'0 0.0
2018-Feb-19 22:28N 39°13' E 009°06'0 0.0
2018-Feb-19 21:58N 39°13' E 009°06'0 0.0
2018-Feb-19 21:22N 39°13' E 009°06'0 0.0
2018-Feb-19 20:58N 39°13' E 009°06'0 0.0
2018-Feb-19 20:28N 39°13' E 009°06'0 0.0
2018-Feb-19 19:58N 39°13' E 009°06'0 0.0
2018-Feb-19 19:28N 39°13' E 009°06'0 0.0
2018-Feb-19 18:58N 39°13' E 009°06'1 2.9
2018-Feb-19 18:30N 39°11' E 009°07'713.3
2018-Feb-19 18:00N 39°07' E 009°13'815.6
2018-Feb-19 17:30N 39°03' E 009°22'252 9.9
2018-Feb-18 16:08N 40°33' E 014°28'316.2
2018-Feb-18 15:59N 40°33' E 014°25'1514.7
2018-Feb-18 14:59N 40°32' E 014°05'715.3
2018-Feb-18 14:30N 40°36' E 013°58'22415.4
2018-Feb-17 23:56N 43°05' E 010°13'715.9
2018-Feb-17 23:30N 43°09' E 010°05'816.0
2018-Feb-17 23:01N 43°14' E 009°57'816.0
2018-Feb-17 22:31N 43°19' E 009°49'815.5
2018-Feb-17 22:01N 43°26' E 009°42'816.3
2018-Feb-17 21:30N 43°33' E 009°36'816.4
2018-Feb-17 21:01N 43°40' E 009°31'816.2
2018-Feb-17 20:31N 43°47' E 009°25'815.8
2018-Feb-17 20:01N 43°53' E 009°20'815.6
2018-Feb-17 19:31N 44°00' E 009°14'815.4
2018-Feb-17 19:01N 44°07' E 009°09'815.8
2018-Feb-17 18:31N 44°14' E 009°03'816.1
2018-Feb-17 18:01N 44°21' E 008°58'5 9.3
2018-Feb-17 17:30N 44°24' E 008°53'0 0.6
2018-Feb-17 17:00N 44°24' E 008°53'0 0.0
2018-Feb-17 16:30N 44°24' E 008°53'0 0.0
2018-Feb-17 16:00N 44°24' E 008°53'0 0.0
2018-Feb-17 15:30N 44°24' E 008°53'0 0.0
2018-Feb-17 15:00N 44°24' E 008°53'0 0.0
2018-Feb-17 14:30N 44°24' E 008°53'0 0.0
2018-Feb-17 14:00N 44°24' E 008°53'0 0.0
2018-Feb-17 13:30N 44°24' E 008°53'0 0.0
2018-Feb-17 13:00N 44°24' E 008°53'0 0.0
2018-Feb-17 12:30N 44°24' E 008°53'0 0.0
2018-Feb-17 12:00N 44°24' E 008°53'0 0.0
2018-Feb-17 11:27N 44°24' E 008°53'0 0.0
2018-Feb-17 10:57N 44°24' E 008°53'0 0.1
2018-Feb-17 10:27N 44°24' E 008°53'0 0.0
2018-Feb-17 09:54N 44°24' E 008°53'0 0.8
2018-Feb-17 09:31N 44°24' E 008°53'4 7.0
2018-Feb-17 09:00N 44°22' E 008°58'714.3
2018-Feb-17 08:31N 44°16' E 009°02'816.1
2018-Feb-17 08:01N 44°08' E 009°06'816.8
2018-Feb-17 07:31N 44°01' E 009°10'917.3
2018-Feb-17 07:00N 43°53' E 009°15'917.5
2018-Feb-17 06:31N 43°45' E 009°20'816.8
2018-Feb-17 06:01N 43°37' E 009°25'816.4
2018-Feb-17 05:30N 43°31' E 009°32'816.3
2018-Feb-17 05:01N 43°24' E 009°39'816.2
2018-Feb-17 04:30N 43°17' E 009°46'816.3
2018-Feb-17 04:01N 43°12' E 009°54'24116.2
2018-Feb-16 13:09N 40°34' E 013°59'1815.6
2018-Feb-16 11:58N 40°32' E 014°23'111 7.9
2018-Feb-15 21:47N 38°45' E 013°43'416.1
2018-Feb-15 21:30N 38°41' E 013°41'816.2
2018-Feb-15 21:00N 38°34' E 013°38'816.2
2018-Feb-15 20:30N 38°26' E 013°34'815.7
2018-Feb-15 20:00N 38°19' E 013°31'815.4
2018-Feb-15 19:30N 38°12' E 013°27'510.7
2018-Feb-15 19:00N 38°08' E 013°22'0 0.6
2018-Feb-15 18:30N 38°08' E 013°22'0 0.0
2018-Feb-15 18:00N 38°08' E 013°22'0 0.0
2018-Feb-15 17:30N 38°08' E 013°22'0 0.0
2018-Feb-15 17:00N 38°08' E 013°22'0 0.0
2018-Feb-15 16:30N 38°08' E 013°22'0 0.0
2018-Feb-15 16:00N 38°08' E 013°22'0 0.0
2018-Feb-15 15:30N 38°08' E 013°22'0 0.0
2018-Feb-15 15:00N 38°08' E 013°22'0 0.0
2018-Feb-15 14:30N 38°08' E 013°22'0 0.0
2018-Feb-15 14:00N 38°08' E 013°22'0 0.0
2018-Feb-15 13:30N 38°08' E 013°22'0 0.7
2018-Feb-15 13:00N 38°08' E 013°22'4 7.7
2018-Feb-15 12:30N 38°11' E 013°25'816.4
2018-Feb-15 12:01N 38°18' E 013°29'816.3
2018-Feb-15 11:31N 38°26' E 013°34'815.3
2018-Feb-15 11:00N 38°33' E 013°37'815.5
2018-Feb-15 10:30N 38°40' E 013°41'122 8.8
2018-Feb-14 20:35N 40°35' E 014°34'515.2
2018-Feb-14 20:17N 40°33' E 014°29'516.0
2018-Feb-14 19:59N 40°32' E 014°22'1214.6
2018-Feb-14 19:09N 40°32' E 014°06'215.6
2018-Feb-14 19:00N 40°33' E 014°04'23015.6
2018-Feb-14 04:16N 43°05' E 010°12'415.8
2018-Feb-14 04:00N 43°08' E 010°08'816.0
2018-Feb-14 03:31N 43°13' E 009°60'815.7
2018-Feb-14 03:00N 43°18' E 009°51'815.7
2018-Feb-14 02:30N 43°23' E 009°44'815.7
2018-Feb-14 02:00N 43°30' E 009°38'815.9
2018-Feb-14 01:31N 43°36' E 009°32'815.7
2018-Feb-14 01:01N 43°43' E 009°26'815.7
2018-Feb-14 00:31N 43°49' E 009°19'815.6
2018-Feb-14 00:01N 43°56' E 009°13'815.9
2018-Feb-13 23:31N 44°03' E 009°08'816.0
2018-Feb-13 23:00N 44°10' E 009°04'815.9
2018-Feb-13 22:30N 44°18' E 008°60'713.5
2018-Feb-13 22:00N 44°24' E 008°56'2 3.5
2018-Feb-13 21:29N 44°24' E 008°53'0 0.0
2018-Feb-13 20:59N 44°24' E 008°53'0 0.0
2018-Feb-13 20:29N 44°24' E 008°53'0 0.0
2018-Feb-13 19:59N 44°24' E 008°53'0 0.0
2018-Feb-13 19:29N 44°24' E 008°53'0 0.0
2018-Feb-13 18:59N 44°24' E 008°53'0 0.0
2018-Feb-13 18:29N 44°24' E 008°53'0 0.0
2018-Feb-13 17:59N 44°24' E 008°53'0 0.0
2018-Feb-13 17:29N 44°24' E 008°53'0 0.0
2018-Feb-13 16:59N 44°24' E 008°53'0 0.0
2018-Feb-13 16:29N 44°24' E 008°53'0 0.0
2018-Feb-13 15:59N 44°24' E 008°53'0 0.3
2018-Feb-13 15:28N 44°24' E 008°53'0 0.0
2018-Feb-13 14:58N 44°24' E 008°53'0 0.0
2018-Feb-13 14:28N 44°24' E 008°53'0 0.0
2018-Feb-13 13:58N 44°24' E 008°53'0 0.0
2018-Feb-13 13:28N 44°24' E 008°53'0 0.0
2018-Feb-13 12:58N 44°24' E 008°53'0 0.0
2018-Feb-13 12:28N 44°24' E 008°53'0 0.0
2018-Feb-13 11:58N 44°24' E 008°53'0 0.0
2018-Feb-13 11:28N 44°24' E 008°53'0 0.0
2018-Feb-13 10:58N 44°24' E 008°53'0 0.0
2018-Feb-13 10:22N 44°24' E 008°53'0 0.0
2018-Feb-13 09:58N 44°24' E 008°53'0 0.0
2018-Feb-13 09:28N 44°24' E 008°53'0 0.0
2018-Feb-13 08:58N 44°24' E 008°53'0 0.0
2018-Feb-13 08:25N 44°24' E 008°53'0 0.0
2018-Feb-13 07:58N 44°24' E 008°53'0 0.0
2018-Feb-13 07:28N 44°24' E 008°53'0 0.0
2018-Feb-13 06:58N 44°24' E 008°53'0 0.0
2018-Feb-13 06:28N 44°24' E 008°53'0 0.0
2018-Feb-13 05:58N 44°24' E 008°53'0 0.0
2018-Feb-13 05:28N 44°24' E 008°53'0 0.0
2018-Feb-13 04:58N 44°24' E 008°53'0 0.0
2018-Feb-13 04:28N 44°24' E 008°53'0 0.0
2018-Feb-13 03:58N 44°24' E 008°53'0 0.0
2018-Feb-13 03:28N 44°24' E 008°53'0 0.0
2018-Feb-13 02:58N 44°24' E 008°53'0 0.0
2018-Feb-13 02:28N 44°24' E 008°53'0 0.0
2018-Feb-13 01:58N 44°24' E 008°53'0 0.0
2018-Feb-13 01:28N 44°24' E 008°53'0 0.0
2018-Feb-13 00:58N 44°24' E 008°53'0 0.0
2018-Feb-13 00:28N 44°24' E 008°53'0 0.0
2018-Feb-12 23:58N 44°24' E 008°53'0 0.0
2018-Feb-12 23:28N 44°24' E 008°53'0 0.0
2018-Feb-12 22:58N 44°24' E 008°53'0 0.0
2018-Feb-12 22:25N 44°24' E 008°53'0 0.0
2018-Feb-12 21:58N 44°24' E 008°53'0 0.0
2018-Feb-12 21:28N 44°24' E 008°53'0 0.0
2018-Feb-12 20:58N 44°24' E 008°53'0 0.0
2018-Feb-12 20:28N 44°24' E 008°53'0 0.0
2018-Feb-12 19:58N 44°24' E 008°53'0 0.0
2018-Feb-12 19:28N 44°24' E 008°53'0 0.0
2018-Feb-12 18:55N 44°24' E 008°53'0 0.0
2018-Feb-12 18:28N 44°24' E 008°53'0 0.0
2018-Feb-12 17:55N 44°24' E 008°53'0 0.0
2018-Feb-12 17:28N 44°24' E 008°53'0 0.0
2018-Feb-12 16:58N 44°24' E 008°53'0 0.0
2018-Feb-12 16:28N 44°24' E 008°53'0 0.0
2018-Feb-12 15:58N 44°24' E 008°53'0 0.0
2018-Feb-12 15:16N 44°24' E 008°53'0 0.0
2018-Feb-12 14:58N 44°24' E 008°53'0 0.0
2018-Feb-12 14:28N 44°24' E 008°53'0 0.0
2018-Feb-12 13:58N 44°24' E 008°53'0 0.0
2018-Feb-12 13:28N 44°24' E 008°53'0 0.0
2018-Feb-12 12:58N 44°24' E 008°53'0 0.0
2018-Feb-12 12:28N 44°24' E 008°53'0 0.0
2018-Feb-12 11:58N 44°24' E 008°53'0 0.0
2018-Feb-12 11:28N 44°24' E 008°53'0 0.0
2018-Feb-12 10:58N 44°24' E 008°53'0 0.0
2018-Feb-12 10:28N 44°24' E 008°53'0 0.0
2018-Feb-12 09:58N 44°24' E 008°53'0 0.0
2018-Feb-12 09:28N 44°24' E 008°53'0 0.0
2018-Feb-12 08:58N 44°24' E 008°53'0 0.0
2018-Feb-12 08:28N 44°24' E 008°53'0 0.0
2018-Feb-12 07:52N 44°24' E 008°53'0 0.0
2018-Feb-12 07:28N 44°24' E 008°53'0 0.0
2018-Feb-12 06:58N 44°24' E 008°53'0 0.0
2018-Feb-12 06:28N 44°24' E 008°53'0 0.0
2018-Feb-12 05:58N 44°24' E 008°53'0 0.0
2018-Feb-12 05:28N 44°24' E 008°53'0 0.0
2018-Feb-12 04:58N 44°24' E 008°53'0 0.0
2018-Feb-12 04:28N 44°24' E 008°53'0 0.0
2018-Feb-12 03:58N 44°24' E 008°53'0 0.0
2018-Feb-12 03:28N 44°24' E 008°53'0 0.0
2018-Feb-12 02:58N 44°24' E 008°53'0 0.0
2018-Feb-12 02:25N 44°24' E 008°53'0 0.0
2018-Feb-12 01:58N 44°24' E 008°53'0 0.0
2018-Feb-12 01:28N 44°24' E 008°53'0 0.0
2018-Feb-12 00:58N 44°24' E 008°53'0 0.0
2018-Feb-12 00:28N 44°24' E 008°53'0 0.0
2018-Feb-11 23:58N 44°24' E 008°53'0 0.0
2018-Feb-11 23:28N 44°24' E 008°53'0 0.0
2018-Feb-11 22:58N 44°24' E 008°53'0 0.0
2018-Feb-11 22:28N 44°24' E 008°53'0 0.0
2018-Feb-11 21:58N 44°24' E 008°53'0 0.0
2018-Feb-11 21:28N 44°24' E 008°53'0 0.0
2018-Feb-11 20:58N 44°24' E 008°53'0 0.0
2018-Feb-11 20:28N 44°24' E 008°53'0 0.0
2018-Feb-11 19:58N 44°24' E 008°53'0 0.0
2018-Feb-11 19:28N 44°24' E 008°53'0 0.0
2018-Feb-11 18:58N 44°24' E 008°53'0 0.0
2018-Feb-11 18:28N 44°24' E 008°53'0 0.0
2018-Feb-11 17:58N 44°24' E 008°53'0 0.0
2018-Feb-11 17:28N 44°24' E 008°53'0 0.0
2018-Feb-11 16:58N 44°24' E 008°53'0 0.0
2018-Feb-11 16:28N 44°24' E 008°53'0 0.0
2018-Feb-11 15:58N 44°24' E 008°53'0 0.0
2018-Feb-11 15:25N 44°24' E 008°53'0 0.0
2018-Feb-11 14:58N 44°24' E 008°53'0 0.0
2018-Feb-11 14:25N 44°24' E 008°53'0 0.0
2018-Feb-11 13:58N 44°24' E 008°53'0 0.0
2018-Feb-11 13:28N 44°24' E 008°53'0 0.0
2018-Feb-11 12:58N 44°24' E 008°53'0 0.0
2018-Feb-11 12:28N 44°24' E 008°53'0 0.0
2018-Feb-11 11:58N 44°24' E 008°53'0 0.0
2018-Feb-11 11:28N 44°24' E 008°53'0 0.0
2018-Feb-11 10:58N 44°24' E 008°53'0 0.0
2018-Feb-11 10:28N 44°24' E 008°53'0 0.0
2018-Feb-11 09:58N 44°24' E 008°53'0 0.0
2018-Feb-11 09:28N 44°24' E 008°53'0 0.0
2018-Feb-11 08:58N 44°24' E 008°53'0 0.0
2018-Feb-11 08:28N 44°24' E 008°53'0 0.0
2018-Feb-11 07:58N 44°24' E 008°53'0 0.0
2018-Feb-11 07:28N 44°24' E 008°53'0 0.0
2018-Feb-11 06:58N 44°24' E 008°53'0 0.0
2018-Feb-11 06:28N 44°24' E 008°53'0 0.0
2018-Feb-11 05:58N 44°24' E 008°53'0 0.0
2018-Feb-11 05:28N 44°24' E 008°53'0 0.0
2018-Feb-11 04:58N 44°24' E 008°53'0 0.0
2018-Feb-11 04:28N 44°24' E 008°53'0 0.0
2018-Feb-11 03:58N 44°24' E 008°53'0 0.0
2018-Feb-11 03:28N 44°24' E 008°53'0 0.0
2018-Feb-11 02:58N 44°24' E 008°53'0 0.0
2018-Feb-11 02:28N 44°24' E 008°53'0 0.0
2018-Feb-11 01:58N 44°24' E 008°53'0 0.0
2018-Feb-11 01:28N 44°24' E 008°53'0 0.0
2018-Feb-11 00:58N 44°24' E 008°53'0 0.0
2018-Feb-11 00:28N 44°24' E 008°53'0 0.0
2018-Feb-10 23:58N 44°24' E 008°53'0 0.0
2018-Feb-10 23:28N 44°24' E 008°53'0 0.0
2018-Feb-10 22:58N 44°24' E 008°53'0 0.0
2018-Feb-10 22:28N 44°24' E 008°53'0 0.0
2018-Feb-10 21:58N 44°24' E 008°53'0 0.0
2018-Feb-10 21:28N 44°24' E 008°53'0 0.0
2018-Feb-10 20:58N 44°24' E 008°53'0 0.0
2018-Feb-10 20:28N 44°24' E 008°53'0 0.0
2018-Feb-10 19:58N 44°24' E 008°53'0 0.0
2018-Feb-10 19:28N 44°24' E 008°53'0 0.0
2018-Feb-10 18:58N 44°24' E 008°53'0 0.0
2018-Feb-10 18:28N 44°24' E 008°53'0 0.0
2018-Feb-10 17:58N 44°24' E 008°53'0 0.0
2018-Feb-10 17:28N 44°24' E 008°53'0 0.0
2018-Feb-10 16:58N 44°24' E 008°53'0 0.0
2018-Feb-10 16:28N 44°24' E 008°53'0 0.0
2018-Feb-10 15:58N 44°24' E 008°53'0 0.0
2018-Feb-10 15:28N 44°24' E 008°53'0 0.2
2018-Feb-10 14:58N 44°24' E 008°53'0 0.4
2018-Feb-10 14:28N 44°24' E 008°53'0 0.0
2018-Feb-10 13:55N 44°24' E 008°53'0 0.0
2018-Feb-10 13:22N 44°24' E 008°53'0 0.0
2018-Feb-10 12:55N 44°24' E 008°53'0 0.0
2018-Feb-10 12:28N 44°24' E 008°53'0 0.4
2018-Feb-10 12:00N 44°24' E 008°53'3 6.8
2018-Feb-10 11:30N 44°23' E 008°57'3 5.9
2018-Feb-10 11:00N 44°20' E 008°59'1 1.5
2018-Feb-10 10:30N 44°19' E 008°59'0 0.9
2018-Feb-10 10:00N 44°19' E 008°59'2 4.8
2018-Feb-10 09:30N 44°17' E 009°01'815.6
2018-Feb-10 09:01N 44°10' E 009°05'816.1
2018-Feb-10 08:31N 44°02' E 009°10'816.3
2018-Feb-10 08:01N 43°55' E 009°14'816.3
2018-Feb-10 07:31N 43°47' E 009°19'816.1
2018-Feb-10 07:01N 43°40' E 009°24'816.1
2018-Feb-10 06:30N 43°33' E 009°28'816.0
2018-Feb-10 06:00N 43°25' E 009°33'815.4
2018-Feb-10 05:31N 43°20' E 009°40'816.0
2018-Feb-10 05:00N 43°15' E 009°49'816.3
2018-Feb-10 04:30N 43°10' E 009°58'815.9
2018-Feb-10 04:01N 43°06' E 010°07'816.1
2018-Feb-10 03:31N 43°01' E 010°16'816.0
2018-Feb-10 03:00N 42°57' E 010°25'  
Track history (hours):
 
Tides and Currents Weather Stations Pressure Air Temp Water Temp Dewpoint Dewpoint Depression Visibility Wind Speed Wind Dir Waves Ship Positions

Eurocargo Salerno

Last reported at 2018-Feb-20 02:33 UTC. Time now 2018-Feb-20 05:37 UTC.
Position N 38°59' E 009°34'.

Length 195 m; draft 6.3 m.

Type: Cargo ship. MMSI: 229706000.

Date/timePositionNaut miles runAvg speedWind from/ knotsBaromVisibWave heightAir tempDewpointWater temp
2018-Feb-20 02:33N 38°59' E 009°34'315.7
2018-Feb-20 02:22N 38°59' E 009°30'616.7
2018-Feb-20 02:00N 39°02' E 009°23'816.6
2018-Feb-20 01:30N 39°07' E 009°15'815.3
2018-Feb-20 01:00N 39°11' E 009°07'2 2.9
2018-Feb-20 00:28N 39°13' E 009°06'0 0.0
2018-Feb-19 23:58N 39°13' E 009°06'0 0.0
2018-Feb-19 23:28N 39°13' E 009°06'0 0.0
2018-Feb-19 22:58N 39°13' E 009°06'0 0.0
2018-Feb-19 22:28N 39°13' E 009°06'0 0.0
2018-Feb-19 21:58N 39°13' E 009°06'0 0.0
2018-Feb-19 21:22N 39°13' E 009°06'0 0.0
2018-Feb-19 20:58N 39°13' E 009°06'0 0.0
2018-Feb-19 20:28N 39°13' E 009°06'0 0.0
2018-Feb-19 19:58N 39°13' E 009°06'0 0.0
2018-Feb-19 19:28N 39°13' E 009°06'0 0.0
2018-Feb-19 18:58N 39°13' E 009°06'1 2.9
2018-Feb-19 18:30N 39°11' E 009°07'713.3
2018-Feb-19 18:00N 39°07' E 009°13'815.6
2018-Feb-19 17:30N 39°03' E 009°22'252 9.9
2018-Feb-18 16:08N 40°33' E 014°28'316.2
2018-Feb-18 15:59N 40°33' E 014°25'1514.7
2018-Feb-18 14:59N 40°32' E 014°05'715.3
2018-Feb-18 14:30N 40°36' E 013°58'22415.4
2018-Feb-17 23:56N 43°05' E 010°13'715.9
2018-Feb-17 23:30N 43°09' E 010°05'816.0
2018-Feb-17 23:01N 43°14' E 009°57'816.0
2018-Feb-17 22:31N 43°19' E 009°49'815.5
2018-Feb-17 22:01N 43°26' E 009°42'816.3
2018-Feb-17 21:30N 43°33' E 009°36'816.4
2018-Feb-17 21:01N 43°40' E 009°31'816.2
2018-Feb-17 20:31N 43°47' E 009°25'815.8
2018-Feb-17 20:01N 43°53' E 009°20'815.6
2018-Feb-17 19:31N 44°00' E 009°14'815.4
2018-Feb-17 19:01N 44°07' E 009°09'815.8
2018-Feb-17 18:31N 44°14' E 009°03'816.1
2018-Feb-17 18:01N 44°21' E 008°58'5 9.3
2018-Feb-17 17:30N 44°24' E 008°53'0 0.6
2018-Feb-17 17:00N 44°24' E 008°53'0 0.0
2018-Feb-17 16:30N 44°24' E 008°53'0 0.0
2018-Feb-17 16:00N 44°24' E 008°53'0 0.0
2018-Feb-17 15:30N 44°24' E 008°53'0 0.0
2018-Feb-17 15:00N 44°24' E 008°53'0 0.0
2018-Feb-17 14:30N 44°24' E 008°53'0 0.0
2018-Feb-17 14:00N 44°24' E 008°53'0 0.0
2018-Feb-17 13:30N 44°24' E 008°53'0 0.0
2018-Feb-17 13:00N 44°24' E 008°53'0 0.0
2018-Feb-17 12:30N 44°24' E 008°53'0 0.0
2018-Feb-17 12:00N 44°24' E 008°53'0 0.0
2018-Feb-17 11:27N 44°24' E 008°53'0 0.0
2018-Feb-17 10:57N 44°24' E 008°53'0 0.1
2018-Feb-17 10:27N 44°24' E 008°53'0 0.0
2018-Feb-17 09:54N 44°24' E 008°53'0 0.8
2018-Feb-17 09:31N 44°24' E 008°53'4 7.0
2018-Feb-17 09:00N 44°22' E 008°58'714.3
2018-Feb-17 08:31N 44°16' E 009°02'816.1
2018-Feb-17 08:01N 44°08' E 009°06'816.8
2018-Feb-17 07:31N 44°01' E 009°10'917.3
2018-Feb-17 07:00N 43°53' E 009°15'917.5
2018-Feb-17 06:31N 43°45' E 009°20'816.8
2018-Feb-17 06:01N 43°37' E 009°25'816.4
2018-Feb-17 05:30N 43°31' E 009°32'816.3
2018-Feb-17 05:01N 43°24' E 009°39'816.2
2018-Feb-17 04:30N 43°17' E 009°46'816.3
2018-Feb-17 04:01N 43°12' E 009°54'24116.2
2018-Feb-16 13:09N 40°34' E 013°59'1815.6
2018-Feb-16 11:58N 40°32' E 014°23'111 7.9
2018-Feb-15 21:47N 38°45' E 013°43'416.1
2018-Feb-15 21:30N 38°41' E 013°41'816.2
2018-Feb-15 21:00N 38°34' E 013°38'816.2
2018-Feb-15 20:30N 38°26' E 013°34'815.7
2018-Feb-15 20:00N 38°19' E 013°31'815.4
2018-Feb-15 19:30N 38°12' E 013°27'510.7
2018-Feb-15 19:00N 38°08' E 013°22'0 0.6
2018-Feb-15 18:30N 38°08' E 013°22'0 0.0
2018-Feb-15 18:00N 38°08' E 013°22'0 0.0
2018-Feb-15 17:30N 38°08' E 013°22'0 0.0
2018-Feb-15 17:00N 38°08' E 013°22'0 0.0
2018-Feb-15 16:30N 38°08' E 013°22'0 0.0
2018-Feb-15 16:00N 38°08' E 013°22'0 0.0
2018-Feb-15 15:30N 38°08' E 013°22'0 0.0
2018-Feb-15 15:00N 38°08' E 013°22'0 0.0
2018-Feb-15 14:30N 38°08' E 013°22'0 0.0
2018-Feb-15 14:00N 38°08' E 013°22'0 0.0
2018-Feb-15 13:30N 38°08' E 013°22'0 0.7
2018-Feb-15 13:00N 38°08' E 013°22'4 7.7
2018-Feb-15 12:30N 38°11' E 013°25'816.4
2018-Feb-15 12:01N 38°18' E 013°29'816.3
2018-Feb-15 11:31N 38°26' E 013°34'815.3
2018-Feb-15 11:00N 38°33' E 013°37'815.5
2018-Feb-15 10:30N 38°40' E 013°41'122 8.8
2018-Feb-14 20:35N 40°35' E 014°34'515.2
2018-Feb-14 20:17N 40°33' E 014°29'516.0
2018-Feb-14 19:59N 40°32' E 014°22'1214.6
2018-Feb-14 19:09N 40°32' E 014°06'215.6
2018-Feb-14 19:00N 40°33' E 014°04'23015.6
2018-Feb-14 04:16N 43°05' E 010°12'415.8
2018-Feb-14 04:00N 43°08' E 010°08'816.0
2018-Feb-14 03:31N 43°13' E 009°60'815.7
2018-Feb-14 03:00N 43°18' E 009°51'815.7
2018-Feb-14 02:30N 43°23' E 009°44'815.7
2018-Feb-14 02:00N 43°30' E 009°38'815.9
2018-Feb-14 01:31N 43°36' E 009°32'815.7
2018-Feb-14 01:01N 43°43' E 009°26'815.7
2018-Feb-14 00:31N 43°49' E 009°19'815.6
2018-Feb-14 00:01N 43°56' E 009°13'815.9
2018-Feb-13 23:31N 44°03' E 009°08'816.0
2018-Feb-13 23:00N 44°10' E 009°04'815.9
2018-Feb-13 22:30N 44°18' E 008°60'713.5
2018-Feb-13 22:00N 44°24' E 008°56'2 3.5
2018-Feb-13 21:29N 44°24' E 008°53'0 0.0
2018-Feb-13 20:59N 44°24' E 008°53'0 0.0
2018-Feb-13 20:29N 44°24' E 008°53'0 0.0
2018-Feb-13 19:59N 44°24' E 008°53'0 0.0
2018-Feb-13 19:29N 44°24' E 008°53'0 0.0
2018-Feb-13 18:59N 44°24' E 008°53'0 0.0
2018-Feb-13 18:29N 44°24' E 008°53'0 0.0
2018-Feb-13 17:59N 44°24' E 008°53'0 0.0
2018-Feb-13 17:29N 44°24' E 008°53'0 0.0
2018-Feb-13 16:59N 44°24' E 008°53'0 0.0
2018-Feb-13 16:29N 44°24' E 008°53'0 0.0
2018-Feb-13 15:59N 44°24' E 008°53'0 0.3
2018-Feb-13 15:28N 44°24' E 008°53'0 0.0
2018-Feb-13 14:58N 44°24' E 008°53'0 0.0
2018-Feb-13 14:28N 44°24' E 008°53'0 0.0
2018-Feb-13 13:58N 44°24' E 008°53'0 0.0
2018-Feb-13 13:28N 44°24' E 008°53'0 0.0
2018-Feb-13 12:58N 44°24' E 008°53'0 0.0
2018-Feb-13 12:28N 44°24' E 008°53'0 0.0
2018-Feb-13 11:58N 44°24' E 008°53'0 0.0
2018-Feb-13 11:28N 44°24' E 008°53'0 0.0
2018-Feb-13 10:58N 44°24' E 008°53'0 0.0
2018-Feb-13 10:22N 44°24' E 008°53'0 0.0
2018-Feb-13 09:58N 44°24' E 008°53'0 0.0
2018-Feb-13 09:28N 44°24' E 008°53'0 0.0
2018-Feb-13 08:58N 44°24' E 008°53'0 0.0
2018-Feb-13 08:25N 44°24' E 008°53'0 0.0
2018-Feb-13 07:58N 44°24' E 008°53'0 0.0
2018-Feb-13 07:28N 44°24' E 008°53'0 0.0
2018-Feb-13 06:58N 44°24' E 008°53'0 0.0
2018-Feb-13 06:28N 44°24' E 008°53'0 0.0
2018-Feb-13 05:58N 44°24' E 008°53'0 0.0
2018-Feb-13 05:28N 44°24' E 008°53'0 0.0
2018-Feb-13 04:58N 44°24' E 008°53'0 0.0
2018-Feb-13 04:28N 44°24' E 008°53'0 0.0
2018-Feb-13 03:58N 44°24' E 008°53'0 0.0
2018-Feb-13 03:28N 44°24' E 008°53'0 0.0
2018-Feb-13 02:58N 44°24' E 008°53'0 0.0
2018-Feb-13 02:28N 44°24' E 008°53'0 0.0
2018-Feb-13 01:58N 44°24' E 008°53'0 0.0
2018-Feb-13 01:28N 44°24' E 008°53'0 0.0
2018-Feb-13 00:58N 44°24' E 008°53'0 0.0
2018-Feb-13 00:28N 44°24' E 008°53'0 0.0
2018-Feb-12 23:58N 44°24' E 008°53'0 0.0
2018-Feb-12 23:28N 44°24' E 008°53'0 0.0
2018-Feb-12 22:58N 44°24' E 008°53'0 0.0
2018-Feb-12 22:25N 44°24' E 008°53'0 0.0
2018-Feb-12 21:58N 44°24' E 008°53'0 0.0
2018-Feb-12 21:28N 44°24' E 008°53'0 0.0
2018-Feb-12 20:58N 44°24' E 008°53'0 0.0
2018-Feb-12 20:28N 44°24' E 008°53'0 0.0
2018-Feb-12 19:58N 44°24' E 008°53'0 0.0
2018-Feb-12 19:28N 44°24' E 008°53'0 0.0
2018-Feb-12 18:55N 44°24' E 008°53'0 0.0
2018-Feb-12 18:28N 44°24' E 008°53'0 0.0
2018-Feb-12 17:55N 44°24' E 008°53'0 0.0
2018-Feb-12 17:28N 44°24' E 008°53'0 0.0
2018-Feb-12 16:58N 44°24' E 008°53'0 0.0
2018-Feb-12 16:28N 44°24' E 008°53'0 0.0
2018-Feb-12 15:58N 44°24' E 008°53'0 0.0
2018-Feb-12 15:16N 44°24' E 008°53'0 0.0
2018-Feb-12 14:58N 44°24' E 008°53'0 0.0
2018-Feb-12 14:28N 44°24' E 008°53'0 0.0
2018-Feb-12 13:58N 44°24' E 008°53'0 0.0
2018-Feb-12 13:28N 44°24' E 008°53'0 0.0
2018-Feb-12 12:58N 44°24' E 008°53'0 0.0
2018-Feb-12 12:28N 44°24' E 008°53'0 0.0
2018-Feb-12 11:58N 44°24' E 008°53'0 0.0
2018-Feb-12 11:28N 44°24' E 008°53'0 0.0
2018-Feb-12 10:58N 44°24' E 008°53'0 0.0
2018-Feb-12 10:28N 44°24' E 008°53'0 0.0
2018-Feb-12 09:58N 44°24' E 008°53'0 0.0
2018-Feb-12 09:28N 44°24' E 008°53'0 0.0
2018-Feb-12 08:58N 44°24' E 008°53'0 0.0
2018-Feb-12 08:28N 44°24' E 008°53'0 0.0
2018-Feb-12 07:52N 44°24' E 008°53'0 0.0
2018-Feb-12 07:28N 44°24' E 008°53'0 0.0
2018-Feb-12 06:58N 44°24' E 008°53'0 0.0
2018-Feb-12 06:28N 44°24' E 008°53'0 0.0
2018-Feb-12 05:58N 44°24' E 008°53'0 0.0
2018-Feb-12 05:28N 44°24' E 008°53'0 0.0
2018-Feb-12 04:58N 44°24' E 008°53'0 0.0
2018-Feb-12 04:28N 44°24' E 008°53'0 0.0
2018-Feb-12 03:58N 44°24' E 008°53'0 0.0
2018-Feb-12 03:28N 44°24' E 008°53'0 0.0
2018-Feb-12 02:58N 44°24' E 008°53'0 0.0
2018-Feb-12 02:25N 44°24' E 008°53'0 0.0
2018-Feb-12 01:58N 44°24' E 008°53'0 0.0
2018-Feb-12 01:28N 44°24' E 008°53'0 0.0
2018-Feb-12 00:58N 44°24' E 008°53'0 0.0
2018-Feb-12 00:28N 44°24' E 008°53'0 0.0
2018-Feb-11 23:58N 44°24' E 008°53'0 0.0
2018-Feb-11 23:28N 44°24' E 008°53'0 0.0
2018-Feb-11 22:58N 44°24' E 008°53'0 0.0
2018-Feb-11 22:28N 44°24' E 008°53'0 0.0
2018-Feb-11 21:58N 44°24' E 008°53'0 0.0
2018-Feb-11 21:28N 44°24' E 008°53'0 0.0
2018-Feb-11 20:58N 44°24' E 008°53'0 0.0
2018-Feb-11 20:28N 44°24' E 008°53'0 0.0
2018-Feb-11 19:58N 44°24' E 008°53'0 0.0
2018-Feb-11 19:28N 44°24' E 008°53'0 0.0
2018-Feb-11 18:58N 44°24' E 008°53'0 0.0
2018-Feb-11 18:28N 44°24' E 008°53'0 0.0
2018-Feb-11 17:58N 44°24' E 008°53'0 0.0
2018-Feb-11 17:28N 44°24' E 008°53'0 0.0
2018-Feb-11 16:58N 44°24' E 008°53'0 0.0
2018-Feb-11 16:28N 44°24' E 008°53'0 0.0
2018-Feb-11 15:58N 44°24' E 008°53'0 0.0
2018-Feb-11 15:25N 44°24' E 008°53'0 0.0
2018-Feb-11 14:58N 44°24' E 008°53'0 0.0
2018-Feb-11 14:25N 44°24' E 008°53'0 0.0
2018-Feb-11 13:58N 44°24' E 008°53'0 0.0
2018-Feb-11 13:28N 44°24' E 008°53'0 0.0
2018-Feb-11 12:58N 44°24' E 008°53'0 0.0
2018-Feb-11 12:28N 44°24' E 008°53'0 0.0
2018-Feb-11 11:58N 44°24' E 008°53'0 0.0
2018-Feb-11 11:28N 44°24' E 008°53'0 0.0
2018-Feb-11 10:58N 44°24' E 008°53'0 0.0
2018-Feb-11 10:28N 44°24' E 008°53'0 0.0
2018-Feb-11 09:58N 44°24' E 008°53'0 0.0
2018-Feb-11 09:28N 44°24' E 008°53'0 0.0
2018-Feb-11 08:58N 44°24' E 008°53'0 0.0
2018-Feb-11 08:28N 44°24' E 008°53'0 0.0
2018-Feb-11 07:58N 44°24' E 008°53'0 0.0
2018-Feb-11 07:28N 44°24' E 008°53'0 0.0
2018-Feb-11 06:58N 44°24' E 008°53'0 0.0
2018-Feb-11 06:28N 44°24' E 008°53'0 0.0
2018-Feb-11 05:58N 44°24' E 008°53'0 0.0
2018-Feb-11 05:28N 44°24' E 008°53'0 0.0
2018-Feb-11 04:58N 44°24' E 008°53'0 0.0
2018-Feb-11 04:28N 44°24' E 008°53'0 0.0
2018-Feb-11 03:58N 44°24' E 008°53'0 0.0
2018-Feb-11 03:28N 44°24' E 008°53'0 0.0
2018-Feb-11 02:58N 44°24' E 008°53'0 0.0
2018-Feb-11 02:28N 44°24' E 008°53'0 0.0
2018-Feb-11 01:58N 44°24' E 008°53'0 0.0
2018-Feb-11 01:28N 44°24' E 008°53'0 0.0
2018-Feb-11 00:58N 44°24' E 008°53'0 0.0
2018-Feb-11 00:28N 44°24' E 008°53'0 0.0
2018-Feb-10 23:58N 44°24' E 008°53'0 0.0
2018-Feb-10 23:28N 44°24' E 008°53'0 0.0
2018-Feb-10 22:58N 44°24' E 008°53'0 0.0
2018-Feb-10 22:28N 44°24' E 008°53'0 0.0
2018-Feb-10 21:58N 44°24' E 008°53'0 0.0
2018-Feb-10 21:28N 44°24' E 008°53'0 0.0
2018-Feb-10 20:58N 44°24' E 008°53'0 0.0
2018-Feb-10 20:28N 44°24' E 008°53'0 0.0
2018-Feb-10 19:58N 44°24' E 008°53'0 0.0
2018-Feb-10 19:28N 44°24' E 008°53'0 0.0
2018-Feb-10 18:58N 44°24' E 008°53'0 0.0
2018-Feb-10 18:28N 44°24' E 008°53'0 0.0
2018-Feb-10 17:58N 44°24' E 008°53'0 0.0
2018-Feb-10 17:28N 44°24' E 008°53'0 0.0
2018-Feb-10 16:58N 44°24' E 008°53'0 0.0
2018-Feb-10 16:28N 44°24' E 008°53'0 0.0
2018-Feb-10 15:58N 44°24' E 008°53'0 0.0
2018-Feb-10 15:28N 44°24' E 008°53'0 0.2
2018-Feb-10 14:58N 44°24' E 008°53'0 0.4
2018-Feb-10 14:28N 44°24' E 008°53'0 0.0
2018-Feb-10 13:55N 44°24' E 008°53'0 0.0
2018-Feb-10 13:22N 44°24' E 008°53'0 0.0
2018-Feb-10 12:55N 44°24' E 008°53'0 0.0
2018-Feb-10 12:28N 44°24' E 008°53'0 0.4
2018-Feb-10 12:00N 44°24' E 008°53'3 6.8
2018-Feb-10 11:30N 44°23' E 008°57'3 5.9
2018-Feb-10 11:00N 44°20' E 008°59'1 1.5
2018-Feb-10 10:30N 44°19' E 008°59'0 0.9
2018-Feb-10 10:00N 44°19' E 008°59'2 4.8
2018-Feb-10 09:30N 44°17' E 009°01'815.6
2018-Feb-10 09:01N 44°10' E 009°05'816.1
2018-Feb-10 08:31N 44°02' E 009°10'816.3
2018-Feb-10 08:01N 43°55' E 009°14'816.3
2018-Feb-10 07:31N 43°47' E 009°19'816.1
2018-Feb-10 07:01N 43°40' E 009°24'816.1
2018-Feb-10 06:30N 43°33' E 009°28'816.0
2018-Feb-10 06:00N 43°25' E 009°33'815.4
2018-Feb-10 05:31N 43°20' E 009°40'816.0
2018-Feb-10 05:00N 43°15' E 009°49'816.3
2018-Feb-10 04:30N 43°10' E 009°58'815.9
2018-Feb-10 04:01N 43°06' E 010°07'816.1
2018-Feb-10 03:31N 43°01' E 010°16'816.0
2018-Feb-10 03:00N 42°57' E 010°25'  

Dump ship's entire track history